Time;durP1;ratioP1;P1;durP2;ratioP2;P2;SDS_P1;SDS_P2;PMS_P1;PMS_P2;Temp;Humidity;BMP_temperature;BMP_pressure;BME280_temperature;BME280_humidity;BME280_pressure;Samples;Min_cycle;Max_cycle;Signal;HPM_P1;HPM_P2
2021/06/09 00:00:47;;;;;;;27.07;24.57;;;18.80;99.90;;;;;;5032756;28;20531;-80
2021/06/09 00:03:13;;;;;;;27.20;24.70;;;18.90;99.90;;;;;;5032155;28;20421;-81
2021/06/09 00:05:39;;;;;;;26.80;24.20;;;18.80;99.90;;;;;;5032106;28;20481;-81
2021/06/09 00:08:05;;;;;;;26.17;23.80;;;18.80;99.90;;;;;;5041957;28;20170;-81
2021/06/09 00:10:31;;;;;;;27.70;25.23;;;18.80;99.90;;;;;;5047795;28;20244;-81
2021/06/09 00:12:56;;;;;;;26.50;24.00;;;18.70;99.90;;;;;;5032826;28;20429;-81
2021/06/09 00:15:22;;;;;;;24.50;22.27;;;18.70;99.90;;;;;;5032100;28;20182;-80
2021/06/09 00:17:48;;;;;;;27.30;24.73;;;18.70;99.90;;;;;;5038505;28;20233;-80
2021/06/09 00:20:19;;;;;;;25.20;22.97;;;18.70;99.90;;;;;;5050092;28;20652;-81
2021/06/09 00:22:45;;;;;;;26.53;23.93;;;18.70;99.90;;;;;;5031777;28;20425;-80
2021/06/09 00:25:18;;;;;;;25.77;23.37;;;18.70;99.90;;;;;;5031625;28;20464;-81
2021/06/09 00:27:46;;;;;;;25.73;23.07;;;18.60;99.90;;;;;;5032548;28;20633;-82
2021/06/09 00:30:14;;;;;;;25.57;23.27;;;18.60;99.90;;;;;;5032702;28;20425;-81
2021/06/09 00:32:40;;;;;;;27.00;24.50;;;18.60;99.90;;;;;;5051998;28;20412;-82
2021/06/09 00:35:06;;;;;;;26.07;23.57;;;18.50;99.90;;;;;;5033026;28;20420;-81
2021/06/09 00:37:32;;;;;;;26.93;24.20;;;18.50;99.90;;;;;;5051992;28;20228;-81
2021/06/09 00:39:58;;;;;;;26.60;24.20;;;18.50;99.90;;;;;;5034990;28;20835;-80
2021/06/09 00:42:24;;;;;;;28.73;26.03;;;18.50;99.90;;;;;;5040388;28;20269;-80
2021/06/09 00:44:50;;;;;;;29.27;26.47;;;18.40;99.90;;;;;;5030868;28;20210;-80
2021/06/09 00:47:23;;;;;;;27.43;24.83;;;18.40;99.90;;;;;;5031971;28;20171;-80
2021/06/09 00:49:50;;;;;;;29.00;26.17;;;18.30;99.90;;;;;;5045583;28;20416;-79
2021/06/09 00:52:16;;;;;;;25.20;22.90;;;18.30;99.90;;;;;;5016086;28;20435;-80
2021/06/09 00:54:42;;;;;;;27.50;25.13;;;18.30;99.90;;;;;;5031972;28;20425;-81
2021/06/09 00:57:08;;;;;;;28.13;25.53;;;18.30;99.90;;;;;;5030834;28;20417;-81
2021/06/09 00:59:37;;;;;;;26.43;23.93;;;18.30;99.90;;;;;;5031750;28;20265;-81
2021/06/09 01:02:04;;;;;;;25.03;22.83;;;18.30;99.90;;;;;;5031958;28;20417;-81
2021/06/09 01:04:31;;;;;;;27.77;25.13;;;18.20;99.90;;;;;;5042830;28;20464;-80
2021/06/09 01:07:00;;;;;;;28.27;25.67;;;18.20;99.90;;;;;;5050960;28;20404;-80
2021/06/09 01:09:26;;;;;;;29.33;26.50;;;18.10;99.90;;;;;;5051377;28;20943;-80
2021/06/09 01:11:52;;;;;;;29.13;26.43;;;18.10;99.90;;;;;;5040526;28;20421;-80
2021/06/09 01:14:18;;;;;;;27.17;24.57;;;18.10;99.90;;;;;;5031720;28;20417;-80
2021/06/09 01:16:43;;;;;;;27.63;25.10;;;18.10;99.90;;;;;;5033846;28;20460;-81
2021/06/09 01:19:09;;;;;;;32.20;26.63;;;18.00;99.90;;;;;;5047481;28;20178;-81
2021/06/09 01:21:35;;;;;;;27.50;24.73;;;17.90;99.90;;;;;;5043347;28;20209;-81
2021/06/09 01:24:02;;;;;;;29.20;26.50;;;17.90;99.90;;;;;;5034464;28;20202;-81
2021/06/09 01:26:30;;;;;;;27.80;25.10;;;17.80;99.90;;;;;;5039536;28;20185;-81
2021/06/09 01:28:58;;;;;;;27.43;24.83;;;17.70;99.90;;;;;;5054349;28;20408;-81
2021/06/09 01:31:25;;;;;;;29.50;26.43;;;17.80;99.90;;;;;;5052861;28;20426;-81
2021/06/09 01:33:51;;;;;;;27.47;24.63;;;17.80;99.90;;;;;;5054699;28;20428;-80
2021/06/09 01:36:17;;;;;;;27.20;24.60;;;17.70;99.90;;;;;;5054775;28;20424;-81
2021/06/09 01:38:43;;;;;;;27.33;24.77;;;17.70;99.90;;;;;;5036945;28;20908;-81
2021/06/09 01:41:08;;;;;;;27.10;24.40;;;17.70;99.90;;;;;;5054096;28;20247;-81
2021/06/09 01:43:34;;;;;;;26.40;23.90;;;17.70;99.90;;;;;;5042497;28;20433;-81
2021/06/09 01:46:01;;;;;;;26.73;24.23;;;17.80;99.90;;;;;;5034122;28;20177;-81
2021/06/09 01:48:27;;;;;;;24.70;21.97;;;17.80;99.90;;;;;;5037903;28;20196;-81
2021/06/09 01:50:53;;;;;;;28.00;25.03;;;17.80;99.90;;;;;;5053503;28;20427;-80
2021/06/09 01:53:19;;;;;;;25.80;23.37;;;17.80;99.90;;;;;;5054424;28;20170;-81
2021/06/09 01:55:45;;;;;;;25.60;23.20;;;17.80;99.90;;;;;;5053279;28;20173;-81
2021/06/09 01:58:12;;;;;;;25.90;23.40;;;17.70;99.90;;;;;;5038660;28;20182;-81
2021/06/09 02:00:43;;;;;;;26.57;24.07;;;17.70;99.90;;;;;;5034619;28;20438;-81
2021/06/09 02:03:11;;;;;;;26.07;23.57;;;17.70;99.90;;;;;;5033884;28;20448;-81
2021/06/09 02:05:37;;;;;;;25.43;23.13;;;17.70;99.90;;;;;;5034280;28;20459;-81
2021/06/09 02:08:09;;;;;;;24.93;22.33;;;17.70;99.90;;;;;;5015931;28;20901;-80
2021/06/09 02:10:37;;;;;;;25.73;23.07;;;17.70;99.90;;;;;;5036584;28;20760;-81
2021/06/09 02:13:12;;;;;;;26.60;24.10;;;17.70;99.90;;;;;;5047209;28;20507;-81
2021/06/09 02:15:38;;;;;;;26.13;23.73;;;17.70;99.90;;;;;;5034473;28;20432;-81
2021/06/09 02:20:55;;;;;;;25.83;23.43;;;17.60;99.90;;;;;;5048905;28;20437;-81
2021/06/09 02:23:27;;;;;;;25.40;23.03;;;17.60;99.90;;;;;;5034263;28;20401;-81
2021/06/09 02:25:58;;;;;;;28.07;25.37;;;17.60;99.90;;;;;;5033819;28;20478;-79
2021/06/09 02:28:27;;;;;;;27.43;25.03;;;17.60;99.90;;;;;;5000201;28;20783;-80
2021/06/09 02:30:53;;;;;;;28.63;25.97;;;17.60;99.90;;;;;;5044061;28;20424;-79
2021/06/09 02:33:21;;;;;;;25.83;23.33;;;17.60;99.90;;;;;;5037890;28;20567;-80
2021/06/09 02:35:48;;;;;;;27.77;25.10;;;17.50;99.90;;;;;;5053703;28;20408;-80
2021/06/09 02:38:16;;;;;;;27.97;25.17;;;17.50;99.90;;;;;;5052789;28;20393;-80
2021/06/09 02:40:45;;;;;;;28.47;25.53;;;17.50;99.90;;;;;;5054071;28;20423;-80
2021/06/09 02:43:11;;;;;;;30.83;27.70;;;17.40;99.90;;;;;;5038653;28;20429;-80
2021/06/09 02:45:38;;;;;;;30.03;27.03;;;17.40;99.90;;;;;;5033230;28;20456;-80
2021/06/09 02:48:13;;;;;;;30.50;27.50;;;17.40;99.90;;;;;;5033092;28;20245;-81
2021/06/09 02:50:40;;;;;;;30.80;27.90;;;17.30;99.90;;;;;;5033873;28;20426;-80
2021/06/09 02:53:11;;;;;;;30.73;27.80;;;17.20;99.90;;;;;;5033042;28;20428;-80
2021/06/09 02:55:47;;;;;;;31.70;28.50;;;17.00;99.90;;;;;;5033650;28;20861;-81
2021/06/09 02:58:15;;;;;;;32.63;29.47;;;16.90;99.90;;;;;;5032710;28;20604;-80
2021/06/09 03:01:06;;;;;;;31.70;28.60;;;16.90;99.90;;;;;;5029497;28;20456;-80
2021/06/09 03:03:41;;;;;;;28.70;25.80;;;16.90;99.90;;;;;;5049286;28;20532;-81
2021/06/09 03:06:16;;;;;;;26.93;24.33;;;16.90;99.90;;;;;;5032733;28;20432;-81
2021/06/09 03:08:54;;;;;;;30.03;27.13;;;17.00;99.90;;;;;;5033370;28;20413;-81
2021/06/09 03:11:38;;;;;;;30.60;27.50;;;17.00;99.90;;;;;;5032496;28;20457;-81
2021/06/09 03:16:57;;;;;;;27.87;25.17;;;17.00;99.90;;;;;;5033122;28;20560;-80
2021/06/09 03:19:55;;;;;;;29.27;26.37;;;17.00;99.90;;;;;;5043960;28;20470;-81
2021/06/09 03:22:32;;;;;;;28.63;25.57;;;17.10;99.90;;;;;;5044173;28;20485;-81
2021/06/09 03:24:58;;;;;;;26.40;23.83;;;17.10;99.90;;;;;;5052055;28;20464;-79
2021/06/09 03:27:49;;;;;;;28.27;25.33;;;17.10;99.90;;;;;;5051732;28;20933;-81
2021/06/09 03:30:16;;;;;;;27.87;25.17;;;17.20;99.90;;;;;;5052058;28;20424;-81
2021/06/09 03:32:49;;;;;;;30.23;27.13;;;17.20;99.90;;;;;;5018766;28;20408;-81
2021/06/09 03:35:23;;;;;;;27.73;24.93;;;17.20;99.90;;;;;;5050317;28;20547;-81
2021/06/09 03:37:53;;;;;;;27.50;24.80;;;17.30;99.90;;;;;;5052826;28;20405;-81
2021/06/09 03:40:22;;;;;;;27.80;25.13;;;17.30;99.90;;;;;;5051217;28;20424;-81
2021/06/09 03:42:52;;;;;;;30.37;27.47;;;17.30;99.90;;;;;;5046901;28;20417;-81
2021/06/09 03:45:19;;;;;;;28.40;25.13;;;17.30;99.90;;;;;;5031717;28;20555;-81
2021/06/09 03:47:46;;;;;;;30.10;27.20;;;17.30;99.90;;;;;;5032487;28;20410;-81
2021/06/09 03:50:16;;;;;;;28.17;25.30;;;17.30;99.90;;;;;;5049482;28;20475;-81
2021/06/09 03:52:45;;;;;;;28.07;25.27;;;17.30;99.90;;;;;;5052316;28;20415;-81
2021/06/09 03:55:13;;;;;;;31.90;29.10;;;17.30;99.90;;;;;;5045532;28;20830;-81
2021/06/09 03:57:40;;;;;;;28.27;25.57;;;17.30;99.90;;;;;;5032492;28;20794;-81
2021/06/09 04:00:07;;;;;;;27.13;24.53;;;17.30;99.90;;;;;;5031725;28;20420;-81
2021/06/09 04:02:34;;;;;;;31.37;28.57;;;17.40;99.90;;;;;;5032626;28;20420;-81
2021/06/09 04:05:01;;;;;;;30.00;27.00;;;17.40;99.90;;;;;;5032881;28;20472;-79
2021/06/09 04:07:28;;;;;;;29.03;26.00;;;17.40;99.90;;;;;;5032351;28;20422;-81
2021/06/09 04:09:57;;;;;;;30.67;27.67;;;17.40;99.90;;;;;;5032230;28;20429;-81
2021/06/09 04:12:23;;;;;;;28.27;25.40;;;17.40;99.90;;;;;;5031739;28;20405;-81
2021/06/09 04:14:51;;;;;;;30.47;27.53;;;17.50;99.90;;;;;;5031723;28;20525;-80
2021/06/09 04:17:25;;;;;;;30.60;27.70;;;17.50;99.90;;;;;;5049671;28;20467;-81
2021/06/09 04:19:53;;;;;;;30.70;27.60;;;17.50;99.90;;;;;;5051991;28;20446;-82
2021/06/09 04:22:21;;;;;;;31.43;28.50;;;17.50;99.90;;;;;;5051325;28;20519;-81
2021/06/09 04:24:47;;;;;;;30.37;27.07;;;17.50;99.90;;;;;;5047323;28;20543;-81
2021/06/09 04:27:32;;;;;;;30.00;27.00;;;17.50;99.90;;;;;;5031414;28;20444;-80
2021/06/09 04:29:58;;;;;;;29.37;26.67;;;17.50;99.90;;;;;;5032174;28;20163;-80
2021/06/09 04:32:25;;;;;;;30.90;28.00;;;17.50;99.90;;;;;;5037381;28;20426;-80
2021/06/09 04:34:53;;;;;;;29.97;26.97;;;17.50;99.90;;;;;;5051823;28;20408;-80
2021/06/09 04:37:22;;;;;;;31.03;27.83;;;17.50;99.90;;;;;;5051186;28;20414;-81
2021/06/09 04:39:51;;;;;;;30.43;27.33;;;17.50;99.90;;;;;;5052007;28;20752;-81
2021/06/09 04:42:18;;;;;;;33.20;29.83;;;17.50;99.90;;;;;;5051099;28;20420;-81
2021/06/09 04:44:44;;;;;;;33.07;29.97;;;17.50;99.90;;;;;;5051875;28;20459;-80
2021/06/09 04:47:11;;;;;;;31.50;28.13;;;17.40;99.90;;;;;;5048017;28;20427;-80
2021/06/09 04:49:40;;;;;;;35.60;31.97;;;17.40;99.90;;;;;;5050732;28;20423;-81
2021/06/09 04:52:07;;;;;;;31.47;28.13;;;17.40;99.90;;;;;;5053773;28;20900;-80
2021/06/09 04:54:33;;;;;;;31.43;28.23;;;17.40;99.90;;;;;;5034421;28;20425;-80
2021/06/09 04:56:59;;;;;;;30.10;26.77;;;17.50;99.90;;;;;;5042548;28;20579;-79
2021/06/09 04:59:25;;;;;;;33.60;30.13;;;17.50;99.90;;;;;;5042120;28;20503;-81
2021/06/09 05:01:51;;;;;;;32.97;29.83;;;17.50;99.90;;;;;;5045216;28;20423;-74
2021/06/09 05:04:17;;;;;;;32.23;28.80;;;17.50;99.90;;;;;;5045813;28;20580;-72
2021/06/09 05:06:43;;;;;;;34.33;29.57;;;17.60;99.90;;;;;;5035411;28;20583;-73
2021/06/09 05:09:10;;;;;;;34.13;30.73;;;17.60;99.90;;;;;;5036350;28;20320;-73
2021/06/09 05:11:58;;;;;;;33.80;30.20;;;17.60;99.90;;;;;;5056093;28;20512;-74
2021/06/09 05:14:28;;;;;;;33.60;30.20;;;17.60;99.90;;;;;;5055328;28;20426;-72
2021/06/09 05:16:55;;;;;;;33.80;30.20;;;17.60;99.90;;;;;;5055427;28;20460;-72
2021/06/09 05:19:25;;;;;;;32.37;29.07;;;17.60;99.90;;;;;;5055095;28;20416;-72
2021/06/09 05:21:53;;;;;;;30.93;27.80;;;17.60;99.90;;;;;;5055694;28;20469;-72
2021/06/09 05:24:24;;;;;;;31.63;28.23;;;17.70;99.90;;;;;;5055020;28;20809;-72
2021/06/09 05:26:51;;;;;;;34.57;30.93;;;17.70;99.90;;;;;;5048553;28;20483;-72
2021/06/09 05:29:17;;;;;;;33.47;30.00;;;17.80;99.90;;;;;;5035234;28;20445;-72
2021/06/09 05:31:46;;;;;;;34.97;31.57;;;17.80;99.90;;;;;;5043310;28;20444;-73
2021/06/09 05:34:14;;;;;;;33.80;30.17;;;17.80;99.90;;;;;;5047075;28;20188;-73
2021/06/09 05:36:39;;;;;;;36.10;32.43;;;17.90;99.90;;;;;;5046250;28;20421;-73
2021/06/09 05:39:05;;;;;;;33.40;29.97;;;17.90;99.90;;;;;;5040034;28;20459;-73
2021/06/09 05:41:31;;;;;;;33.93;30.23;;;17.90;99.90;;;;;;5054846;28;20252;-73
2021/06/09 05:43:57;;;;;;;33.03;29.43;;;18.00;99.90;;;;;;5050146;28;20550;-73
2021/06/09 05:46:27;;;;;;;35.60;30.27;;;18.10;99.90;;;;;;5033756;28;20348;-72
2021/06/09 05:48:53;;;;;;;35.37;32.00;;;18.10;99.90;;;;;;5034852;28;20201;-72
2021/06/09 05:51:19;;;;;;;34.43;30.90;;;18.20;99.90;;;;;;5046376;28;20908;-73
2021/06/09 05:53:53;;;;;;;35.00;31.40;;;18.30;99.90;;;;;;5047065;28;20429;-73
2021/06/09 05:56:19;;;;;;;37.80;34.00;;;18.30;99.90;;;;;;5034468;28;20389;-73
2021/06/09 05:58:45;;;;;;;34.17;30.70;;;18.40;99.90;;;;;;5032831;28;20428;-73
2021/06/09 06:01:11;;;;;;;35.60;32.10;;;18.50;99.90;;;;;;5053569;28;20503;-73
2021/06/09 06:03:41;;;;;;;37.00;33.23;;;18.60;99.90;;;;;;5054726;28;20178;-73
2021/06/09 06:06:09;;;;;;;36.10;32.47;;;18.70;99.90;;;;;;5053701;28;20424;-73
2021/06/09 06:08:37;;;;;;;33.30;30.03;;;18.70;99.90;;;;;;5041499;28;20420;-73
2021/06/09 06:11:08;;;;;;;35.73;32.00;;;18.80;99.90;;;;;;5034360;28;20421;-73
2021/06/09 06:13:35;;;;;;;34.00;30.60;;;18.90;99.90;;;;;;5034388;28;20440;-73
2021/06/09 06:16:02;;;;;;;32.80;29.37;;;19.00;99.90;;;;;;5034242;28;20409;-72
2021/06/09 06:18:35;;;;;;;34.47;30.80;;;19.10;99.90;;;;;;5033618;28;20417;-73
2021/06/09 06:21:02;;;;;;;34.40;31.07;;;19.20;99.90;;;;;;5034685;28;20421;-73
2021/06/09 06:23:29;;;;;;;33.87;30.47;;;19.30;99.90;;;;;;5033972;28;20496;-73
2021/06/09 06:25:55;;;;;;;32.70;29.30;;;19.30;99.90;;;;;;5043736;28;20492;-73
2021/06/09 06:28:22;;;;;;;34.83;31.03;;;19.40;99.90;;;;;;5053684;28;20482;-73
2021/06/09 06:30:52;;;;;;;35.83;32.27;;;19.50;99.90;;;;;;5053868;28;20420;-73
2021/06/09 06:33:22;;;;;;;35.00;31.50;;;19.60;99.90;;;;;;5054052;28;20420;-73
2021/06/09 06:35:49;;;;;;;32.90;29.60;;;19.70;99.90;;;;;;5054591;28;20902;-73
2021/06/09 06:38:15;;;;;;;36.13;32.43;;;19.70;99.90;;;;;;5053607;28;20420;-73
2021/06/09 06:40:42;;;;;;;33.00;29.50;;;19.80;99.90;;;;;;5054279;28;20408;-73
2021/06/09 06:43:08;;;;;;;35.33;31.60;;;19.90;99.90;;;;;;5053489;28;20473;-73
2021/06/09 06:45:34;;;;;;;33.10;29.77;;;19.90;99.90;;;;;;5041503;28;20960;-73
2021/06/09 06:47:59;;;;;;;33.07;29.60;;;20.00;99.90;;;;;;5034425;28;20171;-73
2021/06/09 06:50:26;;;;;;;33.57;30.07;;;20.10;99.90;;;;;;5033437;28;20473;-73
2021/06/09 06:52:52;;;;;;;31.00;28.10;;;20.20;99.90;;;;;;5033761;28;20182;-73
2021/06/09 06:55:21;;;;;;;33.80;30.30;;;20.30;99.90;;;;;;5036313;28;20436;-73
2021/06/09 06:57:49;;;;;;;32.47;29.27;;;20.40;99.90;;;;;;5053824;28;20753;-73
2021/06/09 07:00:20;;;;;;;35.00;31.67;;;20.50;99.90;;;;;;5040084;28;20771;-73
2021/06/09 07:02:48;;;;;;;32.37;29.07;;;20.70;99.90;;;;;;5033739;28;20467;-73
2021/06/09 07:05:16;;;;;;;32.50;29.20;;;20.80;99.90;;;;;;5033123;28;20850;-73
2021/06/09 07:07:42;;;;;;;30.40;27.40;;;20.90;99.90;;;;;;5040152;28;20417;-73
2021/06/09 07:10:12;;;;;;;31.83;28.43;;;21.00;99.90;;;;;;5052458;28;20436;-73
2021/06/09 07:12:39;;;;;;;31.93;28.73;;;21.10;99.90;;;;;;5053018;28;20420;-73
2021/06/09 07:15:09;;;;;;;28.80;26.10;;;21.20;99.90;;;;;;5048167;28;20436;-73
2021/06/09 07:17:46;;;;;;;31.83;28.73;;;21.30;99.90;;;;;;5038592;28;20464;-73
2021/06/09 07:20:13;;;;;;;33.87;30.33;;;21.40;99.90;;;;;;5052831;28;20400;-74
2021/06/09 07:22:40;;;;;;;31.87;28.57;;;21.50;99.90;;;;;;5053329;28;20455;-73
2021/06/09 07:25:09;;;;;;;29.23;26.17;;;21.70;99.90;;;;;;5051978;28;20543;-73
2021/06/09 07:27:37;;;;;;;34.27;30.37;;;21.80;99.90;;;;;;5052953;28;20427;-75
2021/06/09 07:30:09;;;;;;;31.20;28.03;;;21.90;99.90;;;;;;5053268;28;20466;-74
2021/06/09 07:32:41;;;;;;;30.63;27.43;;;22.00;99.90;;;;;;5052839;28;20504;-73
2021/06/09 07:35:08;;;;;;;30.63;27.67;;;22.10;99.90;;;;;;5041385;28;20994;-74
2021/06/09 07:37:40;;;;;;;31.73;28.60;;;22.10;99.90;;;;;;5033520;28;20492;-75
2021/06/09 07:40:07;;;;;;;30.83;27.73;;;22.30;99.90;;;;;;5033332;28;20421;-77
2021/06/09 07:42:34;;;;;;;30.67;27.57;;;22.30;99.90;;;;;;5039603;28;20424;-77
2021/06/09 07:45:11;;;;;;;32.27;28.73;;;22.30;99.90;;;;;;5052956;28;20463;-77
2021/06/09 07:47:41;;;;;;;29.40;26.60;;;22.30;99.90;;;;;;5052892;28;20802;-77
2021/06/09 07:50:08;;;;;;;52.03;46.20;;;22.40;99.90;;;;;;5043185;28;20421;-76
2021/06/09 07:52:36;;;;;;;31.40;28.40;;;22.60;99.90;;;;;;5038380;28;20440;-77
2021/06/09 07:55:03;;;;;;;32.30;28.97;;;22.70;99.90;;;;;;5052800;28;20422;-77
2021/06/09 07:57:33;;;;;;;36.67;30.20;;;22.80;99.90;;;;;;5052201;28;20703;-77
2021/06/09 08:00:01;;;;;;;30.10;27.30;;;22.80;99.90;;;;;;5046657;28;20496;-77
2021/06/09 08:02:28;;;;;;;34.63;31.23;;;22.80;99.90;;;;;;5045379;28;20427;-77
2021/06/09 08:04:53;;;;;;;32.20;29.10;;;23.00;99.90;;;;;;5048885;28;20463;-76
2021/06/09 08:07:19;;;;;;;32.50;29.37;;;23.10;99.90;;;;;;5051298;28;20923;-76
2021/06/09 08:09:45;;;;;;;32.80;29.50;;;23.20;99.90;;;;;;5051564;28;20177;-75
2021/06/09 08:12:11;;;;;;;29.90;27.00;;;23.30;99.90;;;;;;5051175;28;20185;-77
2021/06/09 08:14:38;;;;;;;35.00;31.70;;;23.40;99.90;;;;;;5052289;28;20169;-75
2021/06/09 08:17:07;;;;;;;31.43;28.40;;;23.50;99.80;;;;;;5051970;28;20838;-75
2021/06/09 08:19:32;;;;;;;31.73;28.67;;;23.50;99.90;;;;;;5047243;28;20440;-74
2021/06/09 08:21:58;;;;;;;33.33;30.23;;;23.50;99.90;;;;;;5047075;28;20818;-74
2021/06/09 08:24:24;;;;;;;33.40;30.30;;;23.50;99.10;;;;;;5045091;28;20209;-74
2021/06/09 08:26:50;;;;;;;31.90;28.60;;;23.40;97.50;;;;;;5051716;28;20181;-74
2021/06/09 08:29:16;;;;;;;34.37;30.87;;;23.40;97.80;;;;;;5051646;28;20526;-74
2021/06/09 08:31:42;;;;;;;30.00;27.27;;;23.50;98.90;;;;;;5052429;28;20440;-74
2021/06/09 08:34:08;;;;;;;30.80;27.90;;;23.60;99.60;;;;;;5052446;28;20490;-74
2021/06/09 08:36:34;;;;;;;31.40;28.47;;;23.60;99.80;;;;;;5051778;28;20208;-74
2021/06/09 08:39:03;;;;;;;33.60;30.60;;;23.60;99.10;;;;;;5052326;28;20404;-74
2021/06/09 08:41:32;;;;;;;31.40;28.47;;;23.60;98.10;;;;;;5051978;28;20428;-74
2021/06/09 08:43:59;;;;;;;32.67;29.40;;;23.60;98.20;;;;;;5052110;28;20454;-74
2021/06/09 08:46:25;;;;;;;30.70;27.90;;;23.60;98.70;;;;;;5051392;28;20413;-75
2021/06/09 08:48:54;;;;;;;28.17;25.57;;;23.70;98.80;;;;;;5051931;28;20465;-75
2021/06/09 08:51:21;;;;;;;30.70;27.90;;;23.80;99.30;;;;;;5051584;28;20893;-75
2021/06/09 08:53:49;;;;;;;30.40;27.70;;;24.00;99.10;;;;;;5052441;28;20428;-76
2021/06/09 08:56:17;;;;;;;30.03;27.20;;;24.20;97.80;;;;;;5051588;28;20408;-74
2021/06/09 08:58:43;;;;;;;30.87;27.90;;;24.30;97.90;;;;;;5052221;28;20404;-74
2021/06/09 09:01:10;;;;;;;28.20;25.60;;;24.40;97.20;;;;;;5051818;28;20454;-74
2021/06/09 09:03:38;;;;;;;27.37;24.57;;;24.40;96.80;;;;;;5051554;28;20403;-74
2021/06/09 09:06:04;;;;;;;29.20;26.37;;;24.40;97.00;;;;;;5052011;28;20475;-74
2021/06/09 09:08:31;;;;;;;30.10;27.40;;;24.50;97.90;;;;;;5051470;28;20458;-74
2021/06/09 09:10:57;;;;;;;28.57;25.87;;;24.60;97.80;;;;;;5052176;28;20455;-74
2021/06/09 09:13:24;;;;;;;28.07;25.47;;;24.80;96.80;;;;;;5051353;28;20455;-74
2021/06/09 09:15:51;;;;;;;38.40;34.50;;;24.80;95.00;;;;;;5051707;28;20181;-74
2021/06/09 09:18:16;;;;;;;177.43;159.10;;;24.90;95.20;;;;;;5051456;28;20763;-75
2021/06/09 09:20:46;;;;;;;36.97;33.43;;;25.00;95.90;;;;;;5052056;28;20420;-74
2021/06/09 09:23:28;;;;;;;31.93;29.03;;;25.00;96.10;;;;;;5051694;28;20178;-74
2021/06/09 09:25:56;;;;;;;28.53;25.77;;;25.00;96.00;;;;;;5051734;28;20997;-74
2021/06/09 09:28:30;;;;;;;29.00;26.57;;;25.00;95.90;;;;;;5051114;28;20527;-74
2021/06/09 09:31:10;;;;;;;25.63;23.20;;;24.90;95.90;;;;;;5051759;28;20412;-74
2021/06/09 09:33:36;;;;;;;30.63;27.73;;;24.80;96.00;;;;;;5051140;28;20848;-74
2021/06/09 09:36:26;;;;;;;28.17;25.60;;;24.70;96.00;;;;;;5052007;28;20411;-74
2021/06/09 09:38:54;;;;;;;30.23;27.63;;;24.60;96.30;;;;;;5055036;28;20424;-74
2021/06/09 09:41:20;;;;;;;29.50;26.90;;;24.60;96.40;;;;;;5054952;28;20414;-74
2021/06/09 09:43:52;;;;;;;29.50;26.87;;;24.70;97.00;;;;;;5054999;28;20717;-74
2021/06/09 09:46:24;;;;;;;30.87;28.17;;;24.80;96.80;;;;;;5054837;28;20813;-75
2021/06/09 09:49:18;;;;;;;29.10;26.50;;;25.00;97.30;;;;;;5037446;28;20447;-74
2021/06/09 09:51:54;;;;;;;31.27;28.37;;;25.20;95.90;;;;;;5053089;28;20435;-74
2021/06/09 09:54:34;;;;;;;30.60;27.90;;;25.40;95.90;;;;;;5054304;28;20446;-78
2021/06/09 09:57:02;;;;;;;30.33;27.63;;;25.60;94.90;;;;;;5054976;28;20826;-78
2021/06/09 09:59:31;;;;;;;28.10;25.50;;;25.50;94.00;;;;;;5054498;28;20452;-79
2021/06/09 10:02:01;;;;;;;29.50;26.90;;;25.50;93.20;;;;;;5052954;28;20730;-78
2021/06/09 10:04:34;;;;;;;32.93;30.10;;;25.40;94.00;;;;;;5053952;28;20993;-78
2021/06/09 10:07:02;;;;;;;32.40;29.47;;;25.30;93.90;;;;;;5054912;28;20384;-78
2021/06/09 10:09:39;;;;;;;31.27;28.77;;;25.20;94.40;;;;;;5054079;28;20447;-78
2021/06/09 10:12:11;;;;;;;32.43;29.67;;;25.10;94.00;;;;;;5054967;28;20438;-77
2021/06/09 10:14:46;;;;;;;30.47;27.63;;;25.10;93.10;;;;;;5054050;28;20495;-77
2021/06/09 10:17:16;;;;;;;31.87;29.37;;;25.20;93.20;;;;;;5054385;28;20463;-76
2021/06/09 10:19:48;;;;;;;34.67;31.97;;;25.30;93.40;;;;;;5053588;28;20477;-79
2021/06/09 10:22:32;;;;;;;30.30;27.80;;;25.50;95.80;;;;;;5054515;28;20424;-76
2021/06/09 10:25:08;;;;;;;31.73;29.03;;;25.80;93.80;;;;;;5054069;28;20444;-82
2021/06/09 10:27:37;;;;;;;28.77;26.27;;;26.00;93.90;;;;;;5053503;28;20431;-76
2021/06/09 10:30:22;;;;;;;28.30;26.00;;;26.10;93.40;;;;;;5054275;28;20440;-76
2021/06/09 10:32:51;;;;;;;235.93;212.57;;;26.10;92.60;;;;;;5054322;28;20781;-76
2021/06/09 10:35:19;;;;;;;107.43;97.13;;;26.10;91.70;;;;;;5054072;28;20916;-76
2021/06/09 10:37:46;;;;;;;33.10;30.20;;;26.00;91.20;;;;;;5054122;28;20419;-76
2021/06/09 10:40:16;;;;;;;27.80;25.50;;;26.00;92.10;;;;;;5054040;28;20424;-75
2021/06/09 10:42:44;;;;;;;27.93;25.67;;;26.00;93.10;;;;;;5053018;28;20595;-76
2021/06/09 10:45:11;;;;;;;28.17;25.97;;;26.20;92.90;;;;;;5053797;28;20459;-75
2021/06/09 10:47:38;;;;;;;25.97;23.97;;;26.30;91.20;;;;;;5052866;28;20457;-76
2021/06/09 10:50:09;;;;;;;25.13;23.13;;;26.40;92.30;;;;;;5053370;28;20951;-75
2021/06/09 10:52:35;;;;;;;24.50;22.60;;;26.60;91.70;;;;;;5052866;28;20619;-76
2021/06/09 10:55:06;;;;;;;25.17;23.23;;;26.70;91.80;;;;;;5053300;28;20446;-79
2021/06/09 10:57:32;;;;;;;24.93;23.13;;;26.80;91.60;;;;;;5053791;28;20485;-95
2021/06/09 10:59:58;;;;;;;23.20;21.40;;;26.80;90.90;;;;;;5054220;28;20445;-93
2021/06/09 11:02:25;;;;;;;25.27;23.37;;;26.90;91.30;;;;;;5055344;28;20441;-91
2021/06/09 11:04:54;;;;;;;27.30;25.20;;;27.00;90.70;;;;;;5053742;28;20284;-87
2021/06/09 11:07:31;;;;;;;24.00;22.13;;;27.10;90.20;;;;;;5053399;28;20416;-84
2021/06/09 11:09:59;;;;;;;24.33;22.50;;;27.20;89.70;;;;;;5053370;28;20790;-82
2021/06/09 11:12:29;;;;;;;22.87;21.07;;;27.30;89.30;;;;;;5052478;28;20412;-89
2021/06/09 11:14:57;;;;;;;151.80;136.33;;;27.40;88.40;;;;;;5053340;28;20798;-91
2021/06/09 11:17:45;;;;;;;31.00;28.30;;;27.40;85.00;;;;;;5052434;28;20504;-81
2021/06/09 11:20:34;;;;;;;24.03;22.30;;;27.50;84.80;;;;;;5053252;28;20498;-82
2021/06/09 11:23:24;;;;;;;24.63;22.70;;;27.50;85.50;;;;;;5052789;28;20444;-83
2021/06/09 11:25:50;;;;;;;23.93;22.23;;;27.60;88.40;;;;;;5052678;28;20458;-81
2021/06/09 11:28:41;;;;;;;22.70;21.10;;;27.70;87.00;;;;;;5052975;28;20404;-82
2021/06/09 11:31:13;;;;;;;24.20;22.50;;;27.70;86.60;;;;;;5053179;28;20443;-83
2021/06/09 11:34:00;;;;;;;25.30;23.20;;;27.70;84.90;;;;;;5052026;28;20499;-83
2021/06/09 11:36:25;;;;;;;23.53;21.93;;;27.70;85.60;;;;;;5052820;28;20426;-82
2021/06/09 11:38:56;;;;;;;24.73;22.83;;;27.60;87.30;;;;;;5052563;28;20408;-84
2021/06/09 11:41:49;;;;;;;24.87;23.07;;;27.70;86.00;;;;;;5035399;28;20209;-88
2021/06/09 11:44:28;;;;;;;23.83;22.10;;;27.80;85.90;;;;;;5049170;28;20468;-87
2021/06/09 11:47:18;;;;;;;26.20;23.93;;;27.80;86.40;;;;;;5052614;28;20971;-80
2021/06/09 11:49:45;;;;;;;25.07;22.93;;;27.70;82.80;;;;;;5051797;28;21056;-81
2021/06/09 11:52:11;;;;;;;26.13;23.90;;;27.50;82.80;;;;;;5052271;28;20401;-82
2021/06/09 11:54:37;;;;;;;25.03;22.40;;;27.30;82.80;;;;;;5051642;28;20495;-81
2021/06/09 11:57:17;;;;;;;22.90;21.10;;;27.00;83.30;;;;;;5052492;28;20770;-81
2021/06/09 11:59:44;;;;;;;25.53;23.47;;;26.80;84.50;;;;;;5051299;28;20454;-81
2021/06/09 12:02:19;;;;;;;83.83;76.37;;;26.80;84.40;;;;;;5052739;28;20427;-81
2021/06/09 12:04:50;;;;;;;22.93;21.23;;;26.80;84.90;;;;;;5051684;28;20503;-79
2021/06/09 12:07:21;;;;;;;23.13;21.40;;;26.70;85.20;;;;;;5052352;28;20466;-83
2021/06/09 12:09:48;;;;;;;21.67;20.10;;;26.70;89.20;;;;;;5051767;28;20515;-83
2021/06/09 12:12:17;;;;;;;22.20;20.57;;;26.80;90.00;;;;;;5052234;28;20477;-83
2021/06/09 12:14:47;;;;;;;20.03;18.40;;;26.90;90.00;;;;;;5051091;28;20416;-83
2021/06/09 12:17:19;;;;;;;21.10;19.30;;;27.00;90.50;;;;;;5052520;28;20452;-83
2021/06/09 12:19:49;;;;;;;21.27;19.70;;;27.20;87.20;;;;;;5052004;28;21077;-83
2021/06/09 12:22:21;;;;;;;21.10;19.40;;;27.30;85.20;;;;;;5052533;28;20483;-83
2021/06/09 12:24:58;;;;;;;20.20;18.60;;;27.40;84.60;;;;;;5051968;28;20463;-83
2021/06/09 12:27:25;;;;;;;20.50;19.10;;;27.50;83.70;;;;;;5052491;28;20812;-83
2021/06/09 12:29:51;;;;;;;20.37;18.80;;;27.50;86.10;;;;;;5052664;28;20451;-83
2021/06/09 12:32:23;;;;;;;18.87;17.60;;;27.60;83.30;;;;;;5052080;28;20439;-83
2021/06/09 12:34:56;;;;;;;18.60;17.40;;;27.70;84.50;;;;;;5051800;28;20230;-83
2021/06/09 12:37:23;;;;;;;20.20;18.90;;;27.70;78.80;;;;;;5052343;28;20451;-83
2021/06/09 12:40:01;;;;;;;16.10;15.10;;;27.80;80.70;;;;;;5051683;28;20424;-83
2021/06/09 12:42:27;;;;;;;17.97;16.77;;;27.90;79.00;;;;;;5051879;28;20423;-82